createdAt,value
2022-07-30T00:01:59.923Z,21.70
2022-07-30T00:04:27.757Z,21.70
2022-07-30T00:06:57.282Z,21.70
2022-07-30T00:09:25.221Z,21.60
2022-07-30T00:11:52.813Z,21.60
2022-07-30T00:14:20.445Z,21.60
2022-07-30T00:16:48.044Z,21.60
2022-07-30T00:19:15.787Z,21.70
2022-07-30T00:21:43.435Z,21.60
2022-07-30T00:24:12.551Z,21.60
2022-07-30T00:26:40.336Z,21.60
2022-07-30T00:29:08.650Z,21.60
2022-07-30T00:31:36.466Z,21.70
2022-07-30T00:34:04.077Z,21.60
2022-07-30T00:36:31.756Z,21.60
2022-07-30T00:38:59.401Z,21.60
2022-07-30T00:41:28.591Z,21.60
2022-07-30T00:43:56.229Z,21.60
2022-07-30T00:46:23.991Z,21.60
2022-07-30T00:48:51.687Z,21.60
2022-07-30T00:51:19.396Z,21.60
2022-07-30T00:53:47.035Z,21.60
2022-07-30T00:56:15.792Z,21.60
2022-07-30T00:58:44.922Z,21.60
2022-07-30T01:01:12.669Z,21.60
2022-07-30T01:03:40.486Z,21.60
2022-07-30T01:06:14.367Z,21.60
2022-07-30T01:08:42.458Z,21.60
2022-07-30T01:11:10.070Z,21.60
2022-07-30T01:13:37.889Z,21.60
2022-07-30T01:16:07.101Z,21.60
2022-07-30T01:18:34.787Z,21.60
2022-07-30T01:21:05.787Z,21.60
2022-07-30T01:23:43.227Z,21.60
2022-07-30T01:26:14.884Z,21.60
2022-07-30T01:28:43.603Z,21.50
2022-07-30T01:31:11.352Z,21.50
2022-07-30T01:33:40.796Z,21.60
2022-07-30T01:36:08.683Z,21.60
2022-07-30T01:38:36.267Z,21.50
2022-07-30T01:41:03.810Z,21.50
2022-07-30T01:43:33.041Z,21.50
2022-07-30T01:46:00.752Z,21.60
2022-07-30T01:48:28.531Z,21.50
2022-07-30T01:50:58.107Z,21.50
2022-07-30T01:53:27.091Z,21.60
2022-07-30T01:55:54.736Z,21.50
2022-07-30T01:58:23.659Z,21.50
2022-07-30T02:00:52.797Z,21.60
2022-07-30T02:03:22.081Z,21.50
2022-07-30T02:05:52.732Z,21.50
2022-07-30T02:08:26.582Z,21.50
2022-07-30T02:10:54.391Z,21.50
2022-07-30T02:13:23.256Z,21.40
2022-07-30T02:15:55.153Z,21.40
2022-07-30T02:18:27.742Z,21.50
2022-07-30T02:20:59.425Z,21.50
2022-07-30T02:23:29.397Z,21.50
2022-07-30T02:25:57.128Z,21.50
2022-07-30T02:28:24.770Z,21.50
2022-07-30T02:30:55.337Z,21.50
2022-07-30T02:33:26.768Z,21.50
2022-07-30T02:35:54.643Z,21.50
2022-07-30T02:38:22.310Z,21.40
2022-07-30T02:40:49.962Z,21.40
2022-07-30T02:43:17.765Z,21.50
2022-07-30T02:45:46.443Z,21.40
2022-07-30T02:48:32.983Z,21.50
2022-07-30T02:51:03.473Z,21.40
2022-07-30T02:53:31.157Z,21.40
2022-07-30T02:55:58.838Z,21.40
2022-07-30T02:58:26.517Z,21.40
2022-07-30T03:00:54.926Z,21.40
2022-07-30T03:03:24.082Z,21.40
2022-07-30T03:05:51.724Z,21.50
2022-07-30T03:08:19.872Z,21.40
2022-07-30T03:10:48.061Z,21.40
2022-07-30T03:13:15.786Z,21.40
2022-07-30T03:15:46.253Z,21.40
2022-07-30T03:18:14.051Z,21.40
2022-07-30T03:20:44.375Z,21.40
2022-07-30T03:23:12.080Z,21.40
2022-07-30T03:25:39.671Z,21.40
2022-07-30T03:28:07.324Z,21.40
2022-07-30T03:30:34.991Z,21.40
2022-07-30T03:33:02.580Z,21.40
2022-07-30T03:35:31.238Z,21.40
2022-07-30T03:38:00.997Z,21.40
2022-07-30T03:40:28.984Z,21.40
2022-07-30T03:42:56.551Z,21.40
2022-07-30T03:45:24.314Z,21.40
2022-07-30T03:47:51.901Z,21.40
2022-07-30T03:50:19.502Z,21.40
2022-07-30T03:52:47.175Z,21.40
2022-07-30T03:55:16.307Z,21.40
2022-07-30T03:57:43.976Z,21.40
2022-07-30T04:00:14.506Z,21.40
2022-07-30T04:02:42.654Z,21.40
2022-07-30T04:05:10.309Z,21.30
2022-07-30T04:07:41.316Z,21.30
2022-07-30T04:10:12.930Z,21.40
2022-07-30T04:12:42.037Z,21.40
2022-07-30T04:16:37.151Z,21.30
2022-07-30T04:18:01.861Z,21.30
2022-07-30T04:20:33.372Z,21.30
2022-07-30T04:23:00.798Z,21.30
2022-07-30T04:25:28.445Z,21.30
2022-07-30T04:28:02.745Z,21.30
2022-07-30T04:30:31.599Z,21.30
2022-07-30T04:32:59.181Z,21.30
2022-07-30T04:35:51.332Z,21.30
2022-07-30T04:38:15.350Z,21.30
2022-07-30T04:40:42.796Z,21.30
2022-07-30T04:43:11.708Z,21.30
2022-07-30T04:45:40.080Z,21.30
2022-07-30T04:48:07.603Z,21.30
2022-07-30T04:50:36.453Z,21.30
2022-07-30T04:53:04.178Z,21.30
2022-07-30T04:55:31.801Z,21.30
2022-07-30T04:57:59.296Z,21.30
2022-07-30T05:00:30.980Z,21.30
2022-07-30T05:03:00.164Z,21.30
2022-07-30T05:05:27.780Z,21.30
2022-07-30T05:07:55.279Z,21.30
2022-07-30T05:10:22.741Z,21.30
2022-07-30T05:12:50.167Z,21.30
2022-07-30T05:15:17.644Z,21.30
2022-07-30T05:17:46.514Z,21.30
2022-07-30T05:20:14.055Z,21.30
2022-07-30T05:22:42.802Z,21.30
2022-07-30T05:25:18.366Z,21.30
2022-07-30T05:27:45.922Z,21.30
2022-07-30T05:30:13.587Z,21.30
2022-07-30T05:32:41.962Z,21.30
2022-07-30T05:35:11.182Z,21.30
2022-07-30T05:37:38.642Z,21.30
2022-07-30T05:40:07.176Z,21.30
2022-07-30T05:42:34.653Z,21.30
2022-07-30T05:45:02.083Z,21.30
2022-07-30T05:47:30.900Z,21.30
2022-07-30T05:50:01.597Z,21.30
2022-07-30T05:52:33.985Z,21.30
2022-07-30T05:55:01.509Z,21.30
2022-07-30T05:57:28.953Z,21.30
2022-07-30T05:59:56.405Z,21.30
2022-07-30T06:02:24.263Z,21.30
2022-07-30T06:04:52.187Z,21.30
2022-07-30T06:07:19.717Z,21.30
2022-07-30T06:09:48.686Z,21.30
2022-07-30T06:12:16.115Z,21.30
2022-07-30T06:14:43.765Z,21.30
2022-07-30T06:17:11.476Z,21.30
2022-07-30T06:19:39.016Z,21.30
2022-07-30T06:22:07.244Z,21.30
2022-07-30T06:24:35.103Z,21.30
2022-07-30T06:27:04.424Z,21.30
2022-07-30T06:29:32.396Z,21.30
2022-07-30T06:31:59.906Z,21.30
2022-07-30T06:34:27.362Z,21.30
2022-07-30T06:36:54.873Z,21.30
2022-07-30T06:39:56.887Z,21.20
2022-07-30T06:42:11.344Z,21.20
2022-07-30T06:44:38.827Z,21.30
2022-07-30T06:47:08.100Z,21.20
2022-07-30T06:49:36.388Z,21.20
2022-07-30T06:52:04.396Z,21.30
2022-07-30T06:54:31.841Z,21.30
2022-07-30T06:56:59.460Z,21.20
2022-07-30T06:59:29.368Z,21.30
2022-07-30T07:01:56.815Z,21.30
2022-07-30T07:04:24.347Z,21.20
2022-07-30T07:06:51.880Z,21.30
2022-07-30T07:09:19.357Z,21.20
2022-07-30T07:11:46.801Z,21.20
2022-07-30T07:14:14.325Z,21.20
2022-07-30T07:16:44.006Z,21.20
2022-07-30T07:20:01.313Z,21.20
2022-07-30T07:22:04.176Z,21.20
2022-07-30T07:24:31.637Z,21.20
2022-07-30T07:26:59.458Z,21.20
2022-07-30T07:29:27.231Z,21.20
2022-07-30T07:32:07.070Z,21.20
2022-07-30T07:34:35.778Z,21.30
2022-07-30T07:37:03.457Z,21.20
2022-07-30T07:39:31.218Z,21.20
2022-07-30T07:41:58.694Z,21.20
2022-07-30T07:44:26.171Z,21.20
2022-07-30T07:46:55.196Z,21.20
2022-07-30T07:49:22.743Z,21.20
2022-07-30T07:51:50.301Z,21.20
2022-07-30T07:54:22.632Z,21.20
2022-07-30T07:56:50.692Z,21.20
2022-07-30T07:59:18.168Z,21.20
2022-07-30T08:01:45.704Z,21.20
2022-07-30T08:04:14.790Z,21.20
2022-07-30T08:06:42.244Z,21.20
2022-07-30T08:09:10.844Z,21.20
2022-07-30T08:11:38.541Z,21.20
2022-07-30T08:14:06.186Z,21.20
2022-07-30T08:16:33.859Z,21.20
2022-07-30T08:19:01.546Z,21.20
2022-07-30T08:21:30.639Z,21.20
2022-07-30T08:23:58.289Z,21.20
2022-07-30T08:26:25.899Z,21.20
2022-07-30T08:28:54.574Z,21.30
2022-07-30T08:31:22.416Z,21.20
2022-07-30T08:33:50.121Z,21.20
2022-07-30T08:36:19.655Z,21.20
2022-07-30T08:38:50.939Z,21.20
2022-07-30T08:41:19.635Z,21.20
2022-07-30T08:43:48.068Z,21.20
2022-07-30T08:46:15.774Z,21.20
2022-07-30T08:48:43.502Z,21.20
2022-07-30T08:51:11.195Z,21.20
2022-07-30T08:53:38.897Z,21.20
2022-07-30T08:56:10.045Z,21.30
2022-07-30T08:58:37.791Z,21.30
2022-07-30T09:01:06.264Z,21.20
2022-07-30T09:03:33.936Z,21.30
2022-07-30T09:06:01.996Z,21.30
2022-07-30T09:08:29.622Z,21.20
2022-07-30T09:10:57.289Z,21.30
2022-07-30T09:13:27.949Z,21.30
2022-07-30T09:15:55.656Z,21.30
2022-07-30T09:18:31.220Z,21.30
2022-07-30T09:21:00.617Z,21.30
2022-07-30T09:23:28.286Z,21.30
2022-07-30T09:25:59.044Z,21.30
2022-07-30T09:28:32.526Z,21.30
2022-07-30T09:31:00.449Z,21.30
2022-07-30T09:33:38.937Z,21.30
2022-07-30T09:36:10.484Z,21.00
2022-07-30T09:38:46.040Z,21.30
2022-07-30T09:41:29.283Z,21.40
2022-07-30T09:44:03.951Z,21.30
2022-07-30T09:46:41.443Z,21.30
2022-07-30T09:49:14.726Z,21.40
2022-07-30T09:52:06.680Z,21.40
2022-07-30T09:54:51.779Z,21.30
2022-07-30T09:57:25.932Z,21.30
2022-07-30T09:59:57.470Z,21.30
2022-07-30T10:02:32.280Z,21.30
2022-07-30T10:05:10.630Z,21.40
2022-07-30T10:07:48.969Z,21.40
2022-07-30T10:10:20.652Z,21.40
2022-07-30T10:12:48.954Z,21.40
2022-07-30T10:15:19.129Z,21.40
2022-07-30T10:17:47.496Z,21.40
2022-07-30T10:20:15.683Z,21.40
2022-07-30T10:22:43.721Z,21.40
2022-07-30T10:25:17.371Z,21.40
2022-07-30T10:27:46.332Z,21.40
2022-07-30T10:30:18.033Z,21.40
2022-07-30T10:32:52.449Z,21.50
2022-07-30T10:35:34.737Z,21.50
2022-07-30T10:38:08.710Z,21.50
2022-07-30T10:40:39.524Z,21.50
2022-07-30T10:43:31.534Z,21.50
2022-07-30T10:46:09.304Z,21.50
2022-07-30T10:48:48.232Z,21.50
2022-07-30T10:51:18.529Z,21.50
2022-07-30T10:53:53.440Z,21.50
2022-07-30T10:56:25.902Z,21.50
2022-07-30T10:59:04.809Z,21.60
2022-07-30T11:02:10.955Z,21.60
2022-07-30T11:04:39.050Z,21.60
2022-07-30T11:07:29.078Z,21.60
2022-07-30T11:10:08.886Z,21.60
2022-07-30T11:12:54.217Z,21.60
2022-07-30T11:15:21.582Z,21.60
2022-07-30T11:18:02.657Z,21.50
2022-07-30T11:20:30.501Z,21.60
2022-07-30T11:23:10.466Z,21.60
2022-07-30T11:25:51.849Z,21.60
2022-07-30T11:28:36.617Z,21.60
2022-07-30T11:31:10.508Z,21.60
2022-07-30T11:33:40.014Z,21.60
2022-07-30T11:36:12.112Z,21.60
2022-07-30T11:38:59.929Z,21.60
2022-07-30T11:41:33.079Z,21.70
2022-07-30T11:44:30.430Z,21.70
2022-07-30T11:46:58.029Z,21.70
2022-07-30T11:49:27.344Z,21.70
2022-07-30T11:51:55.114Z,21.70
2022-07-30T11:54:22.824Z,21.70
2022-07-30T11:56:51.708Z,21.70
2022-07-30T11:59:19.355Z,21.70
2022-07-30T12:01:51.125Z,21.70
2022-07-30T12:04:18.767Z,21.80
2022-07-30T12:06:48.194Z,21.80
2022-07-30T12:09:22.975Z,21.80
2022-07-30T12:11:50.687Z,21.80
2022-07-30T12:14:18.086Z,21.80
2022-07-30T12:16:50.200Z,21.80
2022-07-30T12:19:17.884Z,21.80
2022-07-30T12:21:48.328Z,21.80
2022-07-30T12:24:24.987Z,21.80
2022-07-30T12:26:52.581Z,21.90
2022-07-30T12:29:20.294Z,21.80
2022-07-30T12:31:47.923Z,21.90
2022-07-30T12:34:22.436Z,21.80
2022-07-30T12:36:50.120Z,21.90
2022-07-30T12:39:23.133Z,21.90
2022-07-30T12:41:52.426Z,21.90
2022-07-30T12:44:36.250Z,21.90
2022-07-30T12:47:04.656Z,21.90
2022-07-30T12:49:37.701Z,21.90
2022-07-30T12:52:10.730Z,21.90
2022-07-30T12:54:42.726Z,21.90
2022-07-30T12:57:10.326Z,21.90
2022-07-30T12:59:38.034Z,21.90
2022-07-30T13:02:05.718Z,21.90
2022-07-30T13:04:36.064Z,21.90
2022-07-30T13:07:08.351Z,22.00
2022-07-30T13:09:36.096Z,22.00
2022-07-30T13:12:05.738Z,21.90
2022-07-30T13:14:33.581Z,22.00
2022-07-30T13:17:01.635Z,22.00
2022-07-30T13:19:32.242Z,22.00
2022-07-30T13:21:59.827Z,22.00
2022-07-30T13:24:27.553Z,22.00
2022-07-30T13:26:55.190Z,22.00
2022-07-30T13:29:24.283Z,22.00
2022-07-30T13:31:52.003Z,22.10
2022-07-30T13:34:19.702Z,22.10
2022-07-30T13:36:47.364Z,22.10
2022-07-30T13:39:15.020Z,22.10
2022-07-30T13:41:42.660Z,22.10
2022-07-30T13:44:10.276Z,22.10
2022-07-30T13:46:41.337Z,22.10
2022-07-30T13:49:09.487Z,22.10
2022-07-30T13:51:37.317Z,22.10
2022-07-30T13:54:05.001Z,21.40
2022-07-30T13:56:32.606Z,22.20
2022-07-30T13:59:00.285Z,22.20
2022-07-30T14:01:28.010Z,22.20
2022-07-30T14:03:57.247Z,22.20
2022-07-30T14:06:24.842Z,22.30
2022-07-30T14:08:52.518Z,22.30
2022-07-30T14:11:20.101Z,22.20
2022-07-30T14:13:47.760Z,22.20
2022-07-30T14:16:42.339Z,22.30
2022-07-30T14:19:04.814Z,22.20
2022-07-30T14:21:32.465Z,22.30
2022-07-30T14:24:00.158Z,22.30
2022-07-30T14:26:34.396Z,22.30
2022-07-30T14:29:04.855Z,22.20
2022-07-30T14:31:32.499Z,22.30
2022-07-30T14:34:00.057Z,22.30
2022-07-30T14:36:29.224Z,22.20
2022-07-30T14:38:56.971Z,22.30
2022-07-30T14:41:24.804Z,22.30
2022-07-30T14:43:52.510Z,22.30
2022-07-30T14:46:20.338Z,22.30
2022-07-30T14:48:48.019Z,22.30
2022-07-30T14:51:20.753Z,22.30
2022-07-30T14:53:54.776Z,22.30
2022-07-30T14:56:22.609Z,22.30
2022-07-30T14:58:50.231Z,22.30
2022-07-30T15:01:17.972Z,22.30
2022-07-30T15:03:45.702Z,22.30
2022-07-30T15:06:13.315Z,22.30
2022-07-30T15:08:40.943Z,22.30
2022-07-30T15:11:10.152Z,22.30
2022-07-30T15:13:49.627Z,22.30
2022-07-30T15:16:18.520Z,22.30
2022-07-30T15:18:46.228Z,22.30
2022-07-30T15:21:14.022Z,22.30
2022-07-30T15:23:41.622Z,22.30
2022-07-30T15:26:10.782Z,22.30
2022-07-30T15:28:38.464Z,22.30
2022-07-30T15:31:06.118Z,22.30
2022-07-30T15:33:37.095Z,22.30
2022-07-30T15:36:05.717Z,22.30
2022-07-30T15:38:33.546Z,22.30
2022-07-30T15:41:01.188Z,22.30
2022-07-30T15:43:30.397Z,22.30
2022-07-30T15:45:58.146Z,22.30
2022-07-30T15:48:27.394Z,22.30
2022-07-30T15:50:59.898Z,22.30
2022-07-30T15:53:27.426Z,22.30
2022-07-30T15:55:55.126Z,22.30
2022-07-30T15:58:22.900Z,22.30
2022-07-30T16:00:52.107Z,22.30
2022-07-30T16:03:19.797Z,22.30
2022-07-30T16:05:51.138Z,22.30
2022-07-30T16:08:20.262Z,22.20
2022-07-30T16:10:47.917Z,22.20
2022-07-30T16:13:15.661Z,22.20
2022-07-30T16:15:43.287Z,22.20
2022-07-30T16:18:12.417Z,22.20
2022-07-30T16:20:40.147Z,22.20
2022-07-30T16:23:12.605Z,22.20
2022-07-30T16:25:42.041Z,22.20
2022-07-30T16:28:09.746Z,22.20
2022-07-30T16:30:40.653Z,22.20
2022-07-30T16:33:20.946Z,22.20
2022-07-30T16:35:50.914Z,22.20
2022-07-30T16:38:19.285Z,22.20
2022-07-30T16:40:46.962Z,22.20
2022-07-30T16:43:16.356Z,22.20
2022-07-30T16:45:47.936Z,22.20
2022-07-30T16:48:15.591Z,22.20
2022-07-30T16:50:44.728Z,22.20
2022-07-30T16:53:14.494Z,22.20
2022-07-30T16:55:42.997Z,22.20
2022-07-30T16:58:10.679Z,22.20
2022-07-30T17:00:38.631Z,22.20
2022-07-30T17:03:06.380Z,22.20
2022-07-30T17:05:34.571Z,22.10
2022-07-30T17:08:03.797Z,22.10
2022-07-30T17:10:31.471Z,22.20
2022-07-30T17:12:59.102Z,22.10
2022-07-30T17:15:32.107Z,22.20
2022-07-30T17:18:01.125Z,22.10
2022-07-30T17:20:29.008Z,22.10
2022-07-30T17:22:56.615Z,22.10
2022-07-30T17:25:25.698Z,22.10
2022-07-30T17:27:53.447Z,22.10
2022-07-30T17:30:21.111Z,22.10
2022-07-30T17:32:48.910Z,22.10
2022-07-30T17:35:16.639Z,22.10
2022-07-30T17:37:44.313Z,22.10
2022-07-30T17:40:29.820Z,22.10
2022-07-30T17:43:00.885Z,22.10
2022-07-30T17:45:28.763Z,22.10
2022-07-30T17:47:56.486Z,22.10
2022-07-30T17:50:24.138Z,22.10
2022-07-30T17:52:51.789Z,22.10
2022-07-30T17:55:19.352Z,22.10
2022-07-30T17:57:47.096Z,22.10
2022-07-30T18:00:16.697Z,22.10
2022-07-30T18:02:44.419Z,22.10
2022-07-30T18:05:12.244Z,22.10
2022-07-30T18:07:39.940Z,22.10
2022-07-30T18:10:08.362Z,22.10
2022-07-30T18:12:36.052Z,22.10
2022-07-30T18:15:07.279Z,22.10
2022-07-30T18:17:36.443Z,22.10
2022-07-30T18:20:05.157Z,22.10
2022-07-30T18:22:32.882Z,22.10
2022-07-30T18:25:00.780Z,22.10
2022-07-30T18:27:28.608Z,22.10
2022-07-30T18:29:56.188Z,22.10
2022-07-30T18:32:23.933Z,22.10
2022-07-30T18:34:53.151Z,22.10
2022-07-30T18:37:20.795Z,22.10
2022-07-30T18:39:48.455Z,22.10
2022-07-30T18:42:16.106Z,22.10
2022-07-30T18:44:43.804Z,22.10
2022-07-30T18:47:11.471Z,22.10
2022-07-30T18:49:39.790Z,22.10
2022-07-30T18:52:08.953Z,22.00
2022-07-30T18:54:36.749Z,22.10
2022-07-30T18:57:04.687Z,22.00
2022-07-30T18:59:32.321Z,22.00
2022-07-30T19:02:00.258Z,22.10
2022-07-30T19:04:28.360Z,22.00
2022-07-30T19:06:55.980Z,22.00
2022-07-30T19:09:25.123Z,22.10
2022-07-30T19:11:52.753Z,22.00
2022-07-30T19:14:20.404Z,22.10
2022-07-30T19:16:48.149Z,22.00
2022-07-30T19:19:16.951Z,22.00
2022-07-30T19:21:44.467Z,22.00
2022-07-30T19:24:12.109Z,22.00
2022-07-30T19:26:41.275Z,22.00
2022-07-30T19:29:08.857Z,22.00
2022-07-30T19:31:36.865Z,22.00
2022-07-30T19:34:04.404Z,22.00
2022-07-30T19:36:32.250Z,22.00
2022-07-30T19:39:00.727Z,22.00
2022-07-30T19:41:34.819Z,22.00
2022-07-30T19:44:05.493Z,22.00
2022-07-30T19:46:37.011Z,22.00
2022-07-30T19:49:06.059Z,22.00
2022-07-30T19:52:09.954Z,21.90
2022-07-30T19:54:22.523Z,21.90
2022-07-30T19:56:50.092Z,21.90
2022-07-30T19:59:19.156Z,21.90
2022-07-30T20:02:07.084Z,21.90
2022-07-30T20:04:36.264Z,21.90
2022-07-30T20:07:04.362Z,21.90
2022-07-30T20:09:32.602Z,21.90
2022-07-30T20:12:02.346Z,21.90
2022-07-30T20:14:32.165Z,21.90
2022-07-30T20:17:02.279Z,21.90
2022-07-30T20:19:36.046Z,21.90
2022-07-30T20:22:03.876Z,21.90
2022-07-30T20:24:31.639Z,21.80
2022-07-30T20:27:00.101Z,21.80
2022-07-30T20:29:27.883Z,21.90
2022-07-30T20:31:56.972Z,21.90
2022-07-30T20:34:25.901Z,21.90
2022-07-30T20:36:53.970Z,21.90
2022-07-30T20:39:24.961Z,21.90
2022-07-30T20:41:52.538Z,21.90
2022-07-30T20:44:23.419Z,21.90
2022-07-30T20:46:52.673Z,21.90
2022-07-30T20:49:28.943Z,21.90
2022-07-30T20:52:04.026Z,21.90
2022-07-30T20:54:32.032Z,21.90
2022-07-30T20:57:01.223Z,21.90
2022-07-30T20:59:28.907Z,21.90
2022-07-30T21:01:56.621Z,21.90
2022-07-30T21:04:26.742Z,21.90
2022-07-30T21:06:54.394Z,21.90
2022-07-30T21:09:22.059Z,21.80
2022-07-30T21:12:00.748Z,21.90
2022-07-30T21:14:28.916Z,21.80
2022-07-30T21:16:58.556Z,21.80
2022-07-30T21:19:29.030Z,21.90
2022-07-30T21:21:56.946Z,21.80
2022-07-30T21:24:24.548Z,21.80
2022-07-30T21:26:52.327Z,21.90
2022-07-30T21:29:19.993Z,21.80
2022-07-30T21:32:01.734Z,21.80
2022-07-30T21:37:20.804Z,21.80
2022-07-30T21:39:49.013Z,21.80
2022-07-30T21:42:16.664Z,21.80
2022-07-30T21:44:44.272Z,21.80
2022-07-30T21:47:13.500Z,21.80
2022-07-30T21:49:43.099Z,21.80
2022-07-30T21:52:12.952Z,21.80
2022-07-30T21:54:48.094Z,21.80
2022-07-30T21:57:26.422Z,21.80
2022-07-30T21:59:59.771Z,21.80
2022-07-30T22:02:28.065Z,21.80
2022-07-30T22:04:57.421Z,21.80
2022-07-30T22:07:27.000Z,21.80
2022-07-30T22:09:54.934Z,21.80
2022-07-30T22:12:22.587Z,21.80
2022-07-30T22:14:56.894Z,21.80
2022-07-30T22:17:36.733Z,21.80
2022-07-30T22:20:11.348Z,21.80
2022-07-30T22:22:40.091Z,21.80
2022-07-30T22:25:09.627Z,21.80
2022-07-30T22:27:39.982Z,21.80
2022-07-30T22:30:24.065Z,21.80
2022-07-30T22:32:54.109Z,21.80
2022-07-30T22:35:32.479Z,21.80
2022-07-30T22:38:02.968Z,21.80
2022-07-30T22:40:30.603Z,21.80
2022-07-30T22:42:58.209Z,21.80
2022-07-30T22:45:43.533Z,21.80
2022-07-30T22:48:13.600Z,21.80
2022-07-30T22:50:42.759Z,21.80
2022-07-30T22:53:23.425Z,21.80
2022-07-30T22:55:59.176Z,21.80
2022-07-30T22:58:27.413Z,21.70
2022-07-30T23:00:55.199Z,21.80
2022-07-30T23:03:22.771Z,21.80
2022-07-30T23:05:56.768Z,21.70
2022-07-30T23:08:30.387Z,21.80
2022-07-30T23:10:58.398Z,21.80
2022-07-30T23:12:31.475Z,21.80
2022-07-30T23:13:26.030Z,21.70
2022-07-30T23:15:53.636Z,21.70
2022-07-30T23:18:21.456Z,21.80
2022-07-30T23:20:49.215Z,21.70
2022-07-30T23:23:18.435Z,21.70
2022-07-30T23:25:46.171Z,21.80
2022-07-30T23:28:13.900Z,21.70
2022-07-30T23:30:41.590Z,21.70
2022-07-30T23:33:09.155Z,21.70
2022-07-30T23:35:36.834Z,21.80
2022-07-30T23:38:04.359Z,21.70
2022-07-30T23:40:33.559Z,21.70
2022-07-30T23:43:01.234Z,21.70
2022-07-30T23:45:28.975Z,21.70
2022-07-30T23:48:02.441Z,21.70
2022-07-30T23:50:31.234Z,21.70
2022-07-30T23:52:58.676Z,21.70
2022-07-30T23:55:26.212Z,21.70
2022-07-30T23:57:55.395Z,21.80
